createdAt,value
2024-04-06T00:00:17.088Z,69.7976
2024-04-06T00:01:18.505Z,71.4885
2024-04-06T00:02:19.904Z,69.6487
2024-04-06T00:03:23.807Z,71.3122
2024-04-06T00:04:23.194Z,71.8775
2024-04-06T00:05:24.485Z,73.7639
2024-04-06T00:06:25.733Z,72.7477
2024-04-06T00:07:27.048Z,72.5000
2024-04-06T00:08:28.319Z,73.5844
2024-04-06T00:09:29.608Z,73.0842
2024-04-06T00:10:30.861Z,72.8249
2024-04-06T00:11:32.169Z,69.9246
2024-04-06T00:12:33.635Z,70.9652
2024-04-06T00:13:35.038Z,70.2200
2024-04-06T00:14:36.307Z,70.7920
2024-04-06T00:15:37.587Z,72.2322
2024-04-06T00:16:38.882Z,70.2330
2024-04-06T00:17:40.172Z,71.5478
2024-04-06T00:18:41.611Z,72.3896
2024-04-06T00:19:43.104Z,73.1224
2024-04-06T00:20:44.488Z,74.5492
2024-04-06T00:21:45.940Z,74.7135
2024-04-06T00:22:47.385Z,75.3424
2024-04-06T00:23:48.812Z,74.9722
2024-04-06T00:24:50.255Z,71.4416
2024-04-06T00:25:51.691Z,72.9713
2024-04-06T00:26:53.189Z,73.6759
2024-04-06T00:27:54.556Z,72.6529
2024-04-06T00:28:55.828Z,73.1079
2024-04-06T00:29:57.134Z,73.5507
2024-04-06T00:30:58.392Z,74.7662
2024-04-06T00:31:59.692Z,75.4720
2024-04-06T00:33:01.149Z,73.2894
2024-04-06T00:34:02.591Z,71.2508
2024-04-06T00:35:04.013Z,69.9921
2024-04-06T00:36:05.445Z,69.8760
2024-04-06T00:37:06.888Z,66.6037
2024-04-06T00:38:08.328Z,65.8094
2024-04-06T00:39:09.774Z,67.8767
2024-04-06T00:40:11.240Z,68.4174
2024-04-06T00:41:12.614Z,66.7746
2024-04-06T00:42:14.067Z,65.0894
2024-04-06T00:43:15.506Z,66.5540
2024-04-06T00:44:16.949Z,67.9785
2024-04-06T00:45:18.381Z,66.6511
2024-04-06T00:46:19.827Z,66.8810
2024-04-06T00:47:21.147Z,67.2422
2024-04-06T00:48:22.450Z,68.3006
2024-04-06T00:49:23.725Z,70.0544
2024-04-06T00:50:25.064Z,69.4765
2024-04-06T00:51:26.400Z,67.1132
2024-04-06T00:52:27.819Z,67.6692
2024-04-06T00:53:29.317Z,67.9720
2024-04-06T00:54:30.698Z,67.8904
2024-04-06T00:55:32.147Z,68.8266
2024-04-06T00:56:33.584Z,68.1606
2024-04-06T00:57:35.025Z,66.7215
2024-04-06T00:58:36.365Z,68.5151
2024-04-06T00:59:37.705Z,69.1135
2024-04-06T01:00:39.032Z,69.2939
2024-04-06T01:01:44.326Z,66.7326
2024-04-06T01:02:40.332Z,66.6931
2024-04-06T01:03:41.758Z,66.9070
2024-04-06T01:04:43.198Z,68.4557
2024-04-06T01:05:44.517Z,68.7148
2024-04-06T01:06:45.845Z,66.1500
2024-04-06T01:07:47.183Z,66.2059
2024-04-06T01:08:48.628Z,67.6576
2024-04-06T01:09:50.067Z,66.6765
2024-04-06T01:10:51.506Z,66.4920
2024-04-06T01:11:52.946Z,66.2836
2024-04-06T01:12:54.376Z,65.2473
2024-04-06T01:13:55.816Z,66.3446
2024-04-06T01:14:57.259Z,66.5609
2024-04-06T01:15:58.766Z,66.0509
2024-04-06T01:17:00.157Z,66.6315
2024-04-06T01:18:01.587Z,66.8878
2024-04-06T01:19:03.031Z,66.1689
2024-04-06T01:20:04.462Z,65.0922
2024-04-06T01:21:05.898Z,64.5602
2024-04-06T01:22:07.348Z,64.0737
2024-04-06T01:23:08.644Z,64.4173
2024-04-06T01:24:10.057Z,64.8552
2024-04-06T01:25:11.377Z,65.7619
2024-04-06T01:26:12.846Z,67.6342
2024-04-06T01:27:14.198Z,66.4329
2024-04-06T01:28:15.647Z,66.8257
2024-04-06T01:29:17.070Z,65.6522
2024-04-06T01:30:18.511Z,63.9665
2024-04-06T01:31:19.943Z,64.5020
2024-04-06T01:32:21.477Z,63.4737
2024-04-06T01:33:22.827Z,62.7479
2024-04-06T01:34:24.282Z,61.8988
2024-04-06T01:35:25.862Z,62.0282
2024-04-06T01:36:27.226Z,61.9134
2024-04-06T01:37:28.595Z,62.7087
2024-04-06T01:38:30.107Z,61.8418
2024-04-06T01:39:31.495Z,62.3585
2024-04-06T01:40:33.048Z,63.0800
2024-04-06T01:41:34.378Z,62.9208
2024-04-06T01:42:35.827Z,62.3479
2024-04-06T01:43:37.263Z,62.0689
2024-04-06T01:44:38.711Z,60.2643
2024-04-06T01:45:40.137Z,61.2822
2024-04-06T01:46:41.577Z,60.2150
2024-04-06T01:47:43.026Z,60.3100
2024-04-06T01:48:44.375Z,60.9691
2024-04-06T01:49:45.687Z,63.6512
2024-04-06T01:50:47.009Z,64.0403
2024-04-06T01:51:48.459Z,64.7036
2024-04-06T01:52:49.907Z,65.0047
2024-04-06T01:53:51.315Z,66.4957
2024-04-06T01:54:52.602Z,65.3118
2024-04-06T01:55:53.947Z,64.8535
2024-04-06T01:56:55.345Z,65.7240
2024-04-06T01:57:56.774Z,66.8206
2024-04-06T01:58:58.229Z,62.4115
2024-04-06T01:59:59.672Z,61.9596
2024-04-06T02:01:01.118Z,62.0847
2024-04-06T02:02:02.545Z,60.8070
2024-04-06T02:03:03.848Z,62.4405
2024-04-06T02:04:05.190Z,61.1096
2024-04-06T02:05:06.539Z,60.9275
2024-04-06T02:06:07.949Z,60.7961
2024-04-06T02:07:09.430Z,61.3940
2024-04-06T02:08:10.862Z,62.6886
2024-04-06T02:09:12.316Z,61.2213
2024-04-06T02:10:13.752Z,60.9362
2024-04-06T02:11:15.167Z,62.0662
2024-04-06T02:12:16.639Z,60.2314
2024-04-06T02:13:18.073Z,59.9155
2024-04-06T02:14:19.607Z,60.2222
2024-04-06T02:15:20.924Z,60.9515
2024-04-06T02:16:22.387Z,61.3540
2024-04-06T02:17:23.861Z,61.2929
2024-04-06T02:18:25.267Z,60.2564
2024-04-06T02:19:26.783Z,59.3571
2024-04-06T02:20:28.232Z,61.1191
2024-04-06T02:21:29.594Z,60.8831
2024-04-06T02:22:31.353Z,61.8229
2024-04-06T02:23:32.794Z,61.1535
2024-04-06T02:24:34.261Z,59.6417
2024-04-06T02:25:35.662Z,62.8263
2024-04-06T02:26:37.089Z,63.1790
2024-04-06T02:27:38.552Z,62.4903
2024-04-06T02:28:39.981Z,62.2029
2024-04-06T02:29:41.430Z,60.6211
2024-04-06T02:30:42.709Z,61.6787
2024-04-06T02:31:44.070Z,60.2152
2024-04-06T02:32:45.429Z,59.6255
2024-04-06T02:33:46.856Z,59.7952
2024-04-06T02:34:48.337Z,60.3462
2024-04-06T02:35:49.745Z,59.7831
2024-04-06T02:36:51.037Z,59.1219
2024-04-06T02:37:52.355Z,59.4061
2024-04-06T02:38:53.682Z,61.5948
2024-04-06T02:39:54.955Z,63.5917
2024-04-06T02:40:56.251Z,65.1287
2024-04-06T02:41:57.774Z,67.8755
2024-04-06T02:42:59.261Z,69.7948
2024-04-06T02:44:00.620Z,70.1173
2024-04-06T02:45:02.155Z,71.3875
2024-04-06T02:46:03.501Z,71.1079
2024-04-06T02:47:04.943Z,72.7006
2024-04-06T02:48:06.386Z,73.2414
2024-04-06T02:49:07.816Z,72.3805
2024-04-06T02:50:09.248Z,72.8643
2024-04-06T02:51:10.704Z,73.7035
2024-04-06T02:52:12.143Z,73.9650
2024-04-06T02:53:13.567Z,73.8988
2024-04-06T02:54:15.026Z,74.3097
2024-04-06T02:55:16.466Z,73.7909
2024-04-06T02:56:17.911Z,74.0908
2024-04-06T02:57:19.346Z,74.6504
2024-04-06T02:58:20.755Z,75.9322
2024-04-06T02:59:22.212Z,77.0702
2024-04-06T03:00:23.666Z,77.5779
2024-04-06T03:01:25.097Z,78.2664
2024-04-06T03:02:26.575Z,78.4406
2024-04-06T03:03:27.995Z,78.4711
2024-04-06T03:04:29.415Z,76.9864
2024-04-06T03:05:30.724Z,74.1632
2024-04-06T03:06:32.007Z,70.3663
2024-04-06T03:07:33.526Z,70.7149
2024-04-06T03:08:34.867Z,71.2916
2024-04-06T03:09:36.316Z,69.0454
2024-04-06T03:10:37.732Z,69.3209
2024-04-06T03:11:39.186Z,67.5336
2024-04-06T03:12:40.599Z,67.8064
2024-04-06T03:13:42.068Z,65.4341
2024-04-06T03:14:43.377Z,65.8564
2024-04-06T03:15:44.952Z,66.2663
2024-04-06T03:16:46.385Z,65.8806
2024-04-06T03:17:47.815Z,65.5784
2024-04-06T03:18:49.259Z,66.0481
2024-04-06T03:19:50.715Z,66.6492
2024-04-06T03:20:52.019Z,65.9592
2024-04-06T03:21:53.308Z,67.1375
2024-04-06T03:22:54.712Z,66.8722
2024-04-06T03:23:56.234Z,67.7412
2024-04-06T03:24:57.696Z,68.2690
2024-04-06T03:25:59.028Z,67.8869
2024-04-06T03:27:00.450Z,68.7297
2024-04-06T03:28:01.944Z,68.9172
2024-04-06T03:29:03.335Z,66.7812
2024-04-06T03:30:04.798Z,68.1322
2024-04-06T03:31:06.212Z,67.7135
2024-04-06T03:32:07.746Z,68.8976
2024-04-06T03:33:09.106Z,68.0980
2024-04-06T03:34:10.545Z,69.0070
2024-04-06T03:35:11.988Z,70.5846
2024-04-06T03:36:13.427Z,71.3543
2024-04-06T03:37:14.869Z,71.7460
2024-04-06T03:38:16.301Z,70.0150
2024-04-06T03:39:17.731Z,68.9221
2024-04-06T03:40:19.014Z,68.3171
2024-04-06T03:41:20.344Z,69.0211
2024-04-06T03:42:21.752Z,68.5894
2024-04-06T03:43:23.042Z,67.5546
2024-04-06T03:44:24.437Z,68.0572
2024-04-06T03:45:25.754Z,67.2839
2024-04-06T03:46:27.064Z,66.8089
2024-04-06T03:47:28.379Z,65.9867
2024-04-06T03:48:29.734Z,65.3163
2024-04-06T03:49:31.170Z,64.7338
2024-04-06T03:50:32.674Z,64.3281
2024-04-06T03:51:34.027Z,64.2623
2024-04-06T03:52:35.339Z,66.0895
2024-04-06T03:53:36.620Z,66.1234
2024-04-06T03:54:38.055Z,66.4872
2024-04-06T03:55:39.492Z,67.5768
2024-04-06T03:56:40.946Z,65.9070
2024-04-06T03:57:42.375Z,64.4045
2024-04-06T03:58:43.826Z,65.4458
2024-04-06T03:59:45.266Z,65.2537
2024-04-06T04:00:46.704Z,64.8458
2024-04-06T04:01:48.144Z,64.9354
2024-04-06T04:02:49.574Z,66.2016
2024-04-06T04:03:51.015Z,65.5247
2024-04-06T04:04:52.455Z,66.4886
2024-04-06T04:05:53.910Z,65.1251
2024-04-06T04:06:55.354Z,64.8600
2024-04-06T04:07:56.784Z,65.6776
2024-04-06T04:08:58.234Z,65.2365
2024-04-06T04:09:59.655Z,65.3755
2024-04-06T04:11:01.112Z,65.7366
2024-04-06T04:12:02.530Z,65.5134
2024-04-06T04:13:03.978Z,65.2507
2024-04-06T04:14:05.409Z,65.9490
2024-04-06T04:15:06.853Z,64.7755
2024-04-06T04:16:08.286Z,65.9555
2024-04-06T04:17:09.735Z,66.0607
2024-04-06T04:18:11.174Z,65.8736
2024-04-06T04:19:12.609Z,66.9881
2024-04-06T04:20:13.905Z,66.2724
2024-04-06T04:21:15.198Z,66.9171
2024-04-06T04:22:16.504Z,66.3726
2024-04-06T04:23:17.849Z,66.6279
2024-04-06T04:24:19.164Z,66.3255
2024-04-06T04:25:20.616Z,64.6158
2024-04-06T04:26:22.055Z,65.0345
2024-04-06T04:27:23.498Z,64.9714
2024-04-06T04:28:24.936Z,65.2308
2024-04-06T04:29:26.395Z,65.2628
2024-04-06T04:30:27.826Z,64.9919
2024-04-06T04:31:29.286Z,65.3163
2024-04-06T04:32:30.754Z,66.6961
2024-04-06T04:33:32.140Z,67.0573
2024-04-06T04:34:33.580Z,66.6079
2024-04-06T04:35:35.051Z,66.4847
2024-04-06T04:36:36.386Z,67.0959
2024-04-06T04:37:37.688Z,66.0155
2024-04-06T04:38:39.056Z,65.3294
2024-04-06T04:39:40.462Z,66.2944
2024-04-06T04:40:41.742Z,66.0217
2024-04-06T04:41:43.067Z,66.2320
2024-04-06T04:42:44.462Z,66.7526
2024-04-06T04:43:45.906Z,66.2051
2024-04-06T04:44:53.483Z,65.5590
2024-04-06T04:45:47.529Z,66.3034
2024-04-06T04:46:49.075Z,66.6560
2024-04-06T04:47:50.470Z,68.0640
2024-04-06T04:48:51.774Z,68.4094
2024-04-06T04:49:53.297Z,68.2999
2024-04-06T04:50:54.599Z,68.8881
2024-04-06T04:51:55.949Z,69.0827
2024-04-06T04:52:57.238Z,69.2801
2024-04-06T04:53:58.707Z,70.7012
2024-04-06T04:55:00.171Z,72.2374
2024-04-06T04:56:01.607Z,72.3387
2024-04-06T04:57:02.908Z,73.0297
2024-04-06T04:58:04.297Z,73.0716
2024-04-06T04:59:05.630Z,73.2369
2024-04-06T05:00:07.011Z,72.6523
2024-04-06T05:01:08.539Z,72.8910
2024-04-06T05:02:09.906Z,72.5258
2024-04-06T05:03:11.337Z,72.5067
2024-04-06T05:04:12.607Z,72.3245
2024-04-06T05:05:13.896Z,72.7524
2024-04-06T05:06:15.203Z,71.7617
2024-04-06T05:07:16.458Z,72.7135
2024-04-06T05:08:17.759Z,71.0606
2024-04-06T05:09:19.010Z,68.6536
2024-04-06T05:10:20.259Z,69.7958
2024-04-06T05:11:21.614Z,69.5299
2024-04-06T05:12:23.023Z,67.1008
2024-04-06T05:13:24.471Z,68.2529
2024-04-06T05:14:25.918Z,68.1723
2024-04-06T05:15:27.349Z,66.6053
2024-04-06T05:16:28.833Z,66.0401
2024-04-06T05:17:30.244Z,66.3221
2024-04-06T05:18:31.677Z,66.1201
2024-04-06T05:19:32.982Z,67.6802
2024-04-06T05:20:34.324Z,68.4469
2024-04-06T05:21:35.682Z,68.0141
2024-04-06T05:22:37.112Z,67.6270
2024-04-06T05:23:38.627Z,67.3111
2024-04-06T05:24:39.965Z,66.2637
2024-04-06T05:25:41.234Z,67.6379
2024-04-06T05:26:42.589Z,65.8833
2024-04-06T05:27:43.962Z,64.6613
2024-04-06T05:28:45.231Z,64.6364
2024-04-06T05:29:46.543Z,65.9324
2024-04-06T05:30:47.986Z,65.7816
2024-04-06T05:31:49.418Z,65.4862
2024-04-06T05:32:50.698Z,65.0839
2024-04-06T05:33:51.994Z,64.6438
2024-04-06T05:34:53.432Z,64.1035
2024-04-06T05:35:54.858Z,64.2027
2024-04-06T05:36:56.314Z,65.0983
2024-04-06T05:37:57.738Z,64.5306
2024-04-06T05:38:59.006Z,63.6233
2024-04-06T05:40:00.298Z,63.1189
2024-04-06T05:41:01.737Z,62.7709
2024-04-06T05:42:03.191Z,63.9615
2024-04-06T05:43:04.624Z,64.0480
2024-04-06T05:44:07.597Z,62.9201
2024-04-06T05:45:09.007Z,63.8248
2024-04-06T05:46:10.259Z,62.1334
2024-04-06T05:47:11.669Z,62.2948
2024-04-06T05:48:13.099Z,62.3557
2024-04-06T05:49:14.607Z,62.0161
2024-04-06T05:50:15.988Z,61.8331
2024-04-06T05:51:17.418Z,61.9175
2024-04-06T05:52:18.707Z,61.0103
2024-04-06T05:53:20.066Z,60.5902
2024-04-06T05:54:21.420Z,60.7315
2024-04-06T05:55:22.666Z,59.7659
2024-04-06T05:56:23.987Z,60.5478
2024-04-06T05:57:25.431Z,60.8420
2024-04-06T05:58:26.861Z,60.6465
2024-04-06T05:59:28.321Z,61.6368
2024-04-06T06:00:29.740Z,60.3519
2024-04-06T06:01:31.199Z,61.5974
2024-04-06T06:02:32.728Z,59.9837
2024-04-06T06:03:33.979Z,60.7264
2024-04-06T06:04:35.499Z,61.6891
2024-04-06T06:05:36.789Z,61.7793
2024-04-06T06:06:38.051Z,61.1006
2024-04-06T06:07:39.512Z,61.3967
2024-04-06T06:08:40.953Z,64.3677
2024-04-06T06:09:42.377Z,62.3703
2024-04-06T06:10:43.884Z,62.7845
2024-04-06T06:11:45.271Z,60.7901
2024-04-06T06:12:46.717Z,63.5025
2024-04-06T06:13:48.147Z,61.7685
2024-04-06T06:14:49.576Z,59.7280
2024-04-06T06:15:51.026Z,59.6138
2024-04-06T06:16:52.507Z,59.8106
2024-04-06T06:17:53.923Z,60.9450
2024-04-06T06:18:55.326Z,60.8939
2024-04-06T06:19:56.595Z,60.1119
2024-04-06T06:20:58.007Z,61.3932
2024-04-06T06:21:59.346Z,62.3934
2024-04-06T06:23:00.792Z,62.3242
2024-04-06T06:24:02.254Z,62.6150
2024-04-06T06:25:03.676Z,63.3002
2024-04-06T06:26:05.107Z,61.0734
2024-04-06T06:27:06.568Z,61.5430
2024-04-06T06:28:07.985Z,61.6235
2024-04-06T06:29:09.448Z,61.3485
2024-04-06T06:30:10.868Z,62.1306
2024-04-06T06:31:12.303Z,62.3178
2024-04-06T06:32:13.753Z,62.3168
2024-04-06T06:33:15.195Z,60.6561
2024-04-06T06:34:16.654Z,58.6703
2024-04-06T06:35:18.069Z,59.5031
2024-04-06T06:38:20.511Z,59.1219
2024-04-06T06:41:23.573Z,59.1835
2024-04-06T06:42:24.934Z,60.4054
2024-04-06T06:43:26.384Z,59.3629
2024-04-06T06:44:27.838Z,58.1211
2024-04-06T06:45:29.269Z,59.7902
2024-04-06T06:46:30.693Z,58.6235
2024-04-06T06:47:32.179Z,59.8891
2024-04-06T06:48:33.570Z,57.5074
2024-04-06T06:49:35.017Z,56.8633
2024-04-06T06:50:36.455Z,58.8455
2024-04-06T06:51:37.896Z,60.4868
2024-04-06T06:52:39.352Z,61.1384
2024-04-06T06:53:40.622Z,59.9474
2024-04-06T06:54:42.828Z,61.1150
2024-04-06T06:55:44.237Z,61.4882
2024-04-06T06:56:45.682Z,63.9509
2024-04-06T06:57:47.131Z,64.3934
2024-04-06T06:58:48.366Z,64.4143
2024-04-06T07:00:50.346Z,62.6382
2024-04-06T07:01:51.650Z,62.8582
2024-04-06T07:02:52.909Z,63.9122
2024-04-06T07:03:54.208Z,60.8602
2024-04-06T07:04:55.458Z,60.3596
2024-04-06T07:05:56.897Z,58.8258
2024-04-06T07:07:58.937Z,60.9802
2024-04-06T07:09:02.748Z,59.0460
2024-04-06T07:10:00.786Z,60.0828
2024-04-06T07:11:02.078Z,60.2716
2024-04-06T07:12:03.325Z,60.2303
2024-04-06T07:13:04.652Z,59.8492
2024-04-06T07:14:06.082Z,59.5422
2024-04-06T07:15:07.498Z,58.3983
2024-04-06T07:16:08.775Z,59.0204
2024-04-06T07:17:10.060Z,58.2950
2024-04-06T07:18:11.329Z,58.1229
2024-04-06T07:19:12.927Z,57.0984
2024-04-06T07:20:14.190Z,57.0950
2024-04-06T07:21:15.505Z,56.7552
2024-04-06T07:22:16.956Z,57.1325
2024-04-06T07:23:18.286Z,56.9767
2024-04-06T07:24:19.553Z,58.1403
2024-04-06T07:25:20.814Z,59.1616
2024-04-06T07:26:22.078Z,59.2821
2024-04-06T07:27:23.503Z,55.9944
2024-04-06T07:28:24.942Z,56.3895
2024-04-06T07:29:26.386Z,55.6378
2024-04-06T07:30:27.833Z,55.2046
2024-04-06T07:31:29.279Z,55.6728
2024-04-06T07:32:30.770Z,58.5572
2024-04-06T07:33:32.124Z,56.1963
2024-04-06T07:34:33.595Z,54.4068
2024-04-06T07:35:35.020Z,54.0187
2024-04-06T07:36:36.471Z,52.8953
2024-04-06T07:37:37.898Z,52.6320
2024-04-06T07:39:20.084Z,53.5126
2024-04-06T07:39:39.298Z,54.8201
2024-04-06T07:40:40.625Z,55.7302
2024-04-06T07:41:42.055Z,57.2151
2024-04-06T07:42:43.498Z,54.1579
2024-04-06T07:43:44.944Z,55.5217
2024-04-06T07:44:46.380Z,52.7494
2024-04-06T07:45:47.671Z,52.0798
2024-04-06T07:46:49.525Z,55.5278
2024-04-06T07:47:50.968Z,53.5928
2024-04-06T07:48:52.381Z,53.6705
2024-04-06T07:49:53.835Z,55.6593
2024-04-06T07:50:55.286Z,56.3667
2024-04-06T07:51:56.728Z,53.6666
2024-04-06T07:52:58.151Z,53.1954
2024-04-06T07:53:59.442Z,54.9480
2024-04-06T07:55:00.727Z,55.0869
2024-04-06T07:56:02.018Z,53.7079
2024-04-06T07:57:03.425Z,56.3700
2024-04-06T07:58:04.713Z,56.3831
2024-04-06T07:59:06.014Z,56.0590
2024-04-06T08:00:07.454Z,55.7244
2024-04-06T08:01:08.797Z,55.6956
2024-04-06T08:02:10.208Z,54.7101
2024-04-06T08:03:11.657Z,53.4098
2024-04-06T08:04:12.981Z,53.1111
2024-04-06T08:05:14.305Z,53.2799
2024-04-06T08:06:15.697Z,55.8723
2024-04-06T08:07:17.131Z,55.2810
2024-04-06T08:08:18.456Z,56.2150
2024-04-06T08:09:19.745Z,55.0293
2024-04-06T08:10:21.226Z,56.5914
2024-04-06T08:11:22.537Z,54.0900
2024-04-06T08:12:23.997Z,55.6593
2024-04-06T08:13:25.431Z,56.2054
2024-04-06T08:14:26.846Z,53.5606
2024-04-06T08:15:30.830Z,54.2410
2024-04-06T08:16:29.738Z,55.7287
2024-04-06T08:17:31.197Z,55.1558
2024-04-06T08:18:32.620Z,54.8814
2024-04-06T08:19:34.066Z,53.4874
2024-04-06T08:20:35.494Z,55.6554
2024-04-06T08:21:36.788Z,53.9306
2024-04-06T08:22:38.053Z,52.6898
2024-04-06T08:23:39.502Z,53.2984
2024-04-06T08:24:40.996Z,54.0849
2024-04-06T08:25:42.411Z,54.7872
2024-04-06T08:26:43.813Z,53.2387
2024-04-06T08:27:45.097Z,52.6040
2024-04-06T08:28:46.526Z,54.4208
2024-04-06T08:29:47.818Z,52.9843
2024-04-06T08:30:49.121Z,53.8762
2024-04-06T08:31:50.462Z,53.2060
2024-04-06T08:32:51.730Z,52.9182
2024-04-06T08:33:53.036Z,51.6959
2024-04-06T08:34:54.393Z,52.8018
2024-04-06T08:35:55.822Z,53.2813
2024-04-06T08:36:57.270Z,51.8244
2024-04-06T08:37:58.723Z,50.5561
2024-04-06T08:39:00.148Z,51.7132
2024-04-06T08:40:01.604Z,53.4476
2024-04-06T08:41:03.017Z,52.1867
2024-04-06T08:42:04.459Z,51.9584
2024-04-06T08:43:05.911Z,52.4999
2024-04-06T08:44:07.348Z,52.9790
2024-04-06T08:45:08.765Z,52.6408
2024-04-06T08:46:10.252Z,52.7223
2024-04-06T08:47:11.656Z,52.9756
2024-04-06T08:48:13.102Z,52.3038
2024-04-06T08:49:14.580Z,51.9390
2024-04-06T08:50:15.986Z,52.0240
2024-04-06T08:51:17.422Z,52.3738
2024-04-06T08:52:18.857Z,50.6722
2024-04-06T08:53:20.343Z,51.3493
2024-04-06T08:54:21.767Z,51.1442
2024-04-06T08:55:23.177Z,49.0787
2024-04-06T08:56:24.627Z,49.7197
2024-04-06T08:57:26.056Z,50.5009
2024-04-06T08:58:27.356Z,52.9194
2024-04-06T08:59:28.636Z,50.1191
2024-04-06T09:00:30.098Z,49.5745
2024-04-06T09:01:31.488Z,50.4838
2024-04-06T09:02:32.935Z,49.8387
2024-04-06T09:03:34.389Z,49.7143
2024-04-06T09:04:35.839Z,49.8759
2024-04-06T09:05:37.247Z,51.7825
2024-04-06T09:06:38.694Z,50.0255
2024-04-06T09:07:40.133Z,51.6411
2024-04-06T09:08:41.580Z,48.9144
2024-04-06T09:09:43.012Z,48.9860
2024-04-06T09:10:44.464Z,46.9890
2024-04-06T09:11:45.894Z,46.8615
2024-04-06T09:12:47.379Z,47.3898
2024-04-06T09:13:48.907Z,46.2206
2024-04-06T09:14:50.245Z,46.1787
2024-04-06T09:15:51.662Z,47.9011
2024-04-06T09:16:53.170Z,50.0817
2024-04-06T09:17:54.541Z,49.1264
2024-04-06T09:18:55.979Z,47.8214
2024-04-06T09:19:57.425Z,47.9981
2024-04-06T09:20:58.863Z,47.3994
2024-04-06T09:22:00.300Z,46.1673
2024-04-06T09:23:01.577Z,44.2764
2024-04-06T09:24:02.844Z,45.8242
2024-04-06T09:25:04.338Z,45.4948
2024-04-06T09:26:05.603Z,47.0668
2024-04-06T09:27:06.895Z,48.8150
2024-04-06T09:28:08.318Z,49.8275
2024-04-06T09:29:09.753Z,45.6795
2024-04-06T09:30:11.125Z,46.9267
2024-04-06T09:31:12.459Z,48.2367
2024-04-06T09:32:13.744Z,43.9799
2024-04-06T09:33:15.180Z,42.1149
2024-04-06T09:34:16.649Z,46.0550
2024-04-06T09:35:18.120Z,46.3123
2024-04-06T09:36:19.587Z,44.3548
2024-04-06T09:37:20.944Z,45.8573
2024-04-06T09:38:25.663Z,47.4238
2024-04-06T09:39:23.826Z,49.7231
2024-04-06T09:40:25.254Z,50.5583
2024-04-06T09:41:26.698Z,46.7297
2024-04-06T09:42:27.977Z,46.7360
2024-04-06T09:43:29.276Z,46.2788
2024-04-06T09:44:30.708Z,47.8141
2024-04-06T09:45:32.145Z,47.5341
2024-04-06T09:46:33.596Z,46.1316
2024-04-06T09:47:35.014Z,46.0334
2024-04-06T09:48:36.455Z,44.7035
2024-04-06T09:49:37.815Z,49.4431
2024-04-06T09:50:39.105Z,46.8810
2024-04-06T09:51:40.465Z,48.8697
2024-04-06T09:52:41.898Z,50.4247
2024-04-06T09:53:43.343Z,48.2426
2024-04-06T09:54:44.776Z,47.7779
2024-04-06T09:55:46.225Z,46.3535
2024-04-06T09:56:47.679Z,47.9621
2024-04-06T09:57:48.941Z,47.5674
2024-04-06T09:58:50.249Z,48.2122
2024-04-06T09:59:52.397Z,50.6700
2024-04-06T10:00:54.667Z,46.5251
2024-04-06T10:01:56.106Z,50.0468
2024-04-06T10:02:57.548Z,48.7727
2024-04-06T10:03:58.978Z,51.3752
2024-04-06T10:05:00.347Z,49.9413
2024-04-06T10:06:01.621Z,51.0321
2024-04-06T10:07:02.908Z,49.6678
2024-04-06T10:08:04.252Z,50.9578
2024-04-06T10:09:05.560Z,51.9963
2024-04-06T10:10:07.016Z,49.8207
2024-04-06T10:11:08.464Z,48.7978
2024-04-06T10:12:09.904Z,49.2790
2024-04-06T10:13:11.350Z,50.7160
2024-04-06T10:14:13.795Z,50.8635
2024-04-06T10:15:16.079Z,46.5949
2024-04-06T10:16:17.456Z,46.0283
2024-04-06T10:17:18.744Z,48.5657
2024-04-06T10:18:20.138Z,47.8025
2024-04-06T10:19:21.599Z,48.3441
2024-04-06T10:20:22.855Z,45.9000
2024-04-06T10:21:24.141Z,47.4899
2024-04-06T10:22:25.600Z,47.8189
2024-04-06T10:23:27.028Z,48.3561
2024-04-06T10:24:28.458Z,48.9823
2024-04-06T10:25:29.898Z,48.2157
2024-04-06T10:26:31.341Z,46.7325
2024-04-06T10:27:32.772Z,46.7487
2024-04-06T10:28:34.234Z,48.3045
2024-04-06T10:29:35.656Z,48.5989
2024-04-06T10:30:37.120Z,50.9837
2024-04-06T10:31:46.058Z,50.0141
2024-04-06T10:32:38.668Z,49.8100
2024-04-06T10:33:40.116Z,50.2842
2024-04-06T10:34:49.690Z,50.3811
2024-04-06T10:35:41.597Z,46.6389
2024-04-06T10:36:42.919Z,49.2064
2024-04-06T10:37:44.246Z,46.1737
2024-04-06T10:38:45.627Z,46.0612
2024-04-06T10:39:46.881Z,46.2776
2024-04-06T10:40:48.308Z,47.2939
2024-04-06T10:41:49.855Z,48.6995
2024-04-06T10:42:51.176Z,48.7294
2024-04-06T10:43:52.622Z,47.4348
2024-04-06T10:44:54.056Z,46.4125
2024-04-06T10:45:55.528Z,45.8323
2024-04-06T10:46:56.990Z,45.8421
2024-04-06T10:47:58.404Z,46.1813
2024-04-06T10:48:59.767Z,45.9345
2024-04-06T10:50:01.125Z,44.8175
2024-04-06T10:51:02.447Z,46.3780
2024-04-06T10:52:03.819Z,45.1321
2024-04-06T10:53:05.242Z,46.5801
2024-04-06T10:54:06.691Z,46.2879
2024-04-06T10:55:08.131Z,45.2848
2024-04-06T10:56:09.658Z,44.1113
2024-04-06T10:57:11.101Z,45.7821
2024-04-06T10:58:12.481Z,42.5723
2024-04-06T10:59:13.814Z,41.4206
2024-04-06T11:00:15.104Z,42.4992
2024-04-06T11:01:16.483Z,43.6932
2024-04-06T11:02:17.904Z,43.9519
2024-04-06T11:03:19.348Z,45.6444
2024-04-06T11:04:20.898Z,44.8809
2024-04-06T11:05:22.266Z,46.8716
2024-04-06T11:06:23.669Z,47.2613
2024-04-06T11:07:25.099Z,46.3189
2024-04-06T11:08:26.365Z,45.4037
2024-04-06T11:09:27.645Z,45.7697
2024-04-06T11:10:28.934Z,43.5216
2024-04-06T11:11:30.209Z,45.5060
2024-04-06T11:12:31.657Z,43.7531
2024-04-06T11:13:33.102Z,40.9166
2024-04-06T11:14:34.537Z,43.0302
2024-04-06T11:15:35.987Z,43.5694
2024-04-06T11:16:37.539Z,46.3242
2024-04-06T11:17:38.931Z,47.3829
2024-04-06T11:18:42.159Z,46.4871
2024-04-06T11:19:43.628Z,44.2008
2024-04-06T11:20:45.087Z,43.5387
2024-04-06T11:21:46.434Z,44.8391
2024-04-06T11:22:47.768Z,45.1949
2024-04-06T11:23:49.405Z,43.9397
2024-04-06T11:24:50.847Z,41.7235
2024-04-06T11:25:52.274Z,39.0126
2024-04-06T11:26:53.717Z,42.1777
2024-04-06T11:27:55.204Z,42.9243
2024-04-06T11:28:56.608Z,42.7709
2024-04-06T11:29:58.880Z,43.7938
2024-04-06T11:31:01.430Z,42.0075
2024-04-06T11:32:02.699Z,41.2065
2024-04-06T11:33:04.001Z,42.1485
2024-04-06T11:34:05.418Z,41.3064
2024-04-06T11:35:06.872Z,42.4273
2024-04-06T11:36:08.308Z,41.7117
2024-04-06T11:37:09.815Z,40.7207
2024-04-06T11:38:11.175Z,41.1502
2024-04-06T11:39:12.612Z,40.6493
2024-04-06T11:40:14.062Z,42.2705
2024-04-06T11:41:15.498Z,42.6184
2024-04-06T11:42:16.956Z,42.5241
2024-04-06T11:43:18.546Z,41.6973
2024-04-06T11:44:19.805Z,40.7583
2024-04-06T11:45:21.284Z,40.4501
2024-04-06T11:46:22.754Z,40.5333
2024-04-06T11:47:24.147Z,39.6321
2024-04-06T11:48:26.982Z,41.6908
2024-04-06T11:49:26.108Z,40.8514
2024-04-06T11:50:27.421Z,40.4857
2024-04-06T11:51:28.762Z,41.0965
2024-04-06T11:52:30.037Z,39.9428
2024-04-06T11:53:31.518Z,42.6512
2024-04-06T11:54:32.945Z,41.6638
2024-04-06T11:55:34.387Z,43.4162
2024-04-06T11:56:35.806Z,40.0979
2024-04-06T11:57:37.266Z,39.6649
2024-04-06T11:58:38.533Z,41.9767
2024-04-06T11:59:39.854Z,39.3019
2024-04-06T12:00:41.279Z,42.9751
2024-04-06T12:01:42.711Z,39.8314
2024-04-06T12:02:44.144Z,39.7211
2024-04-06T12:03:45.630Z,40.8870
2024-04-06T12:04:47.022Z,40.5905
2024-04-06T12:05:48.467Z,41.1760
2024-04-06T12:06:49.934Z,42.0406
2024-04-06T12:07:51.344Z,40.6564
2024-04-06T12:08:52.762Z,42.4838
2024-04-06T12:09:54.225Z,41.2952
2024-04-06T12:10:55.656Z,40.2372
2024-04-06T12:11:59.143Z,40.2270
2024-04-06T12:13:00.528Z,41.2763
2024-04-06T12:14:01.898Z,38.9345
2024-04-06T12:15:03.188Z,39.8506
2024-04-06T12:16:04.509Z,40.9537
2024-04-06T12:17:05.824Z,39.8343
2024-04-06T12:18:07.141Z,38.6217
2024-04-06T12:19:08.457Z,39.8507
2024-04-06T12:20:09.922Z,40.1109
2024-04-06T12:21:11.331Z,41.2752
2024-04-06T12:22:12.777Z,42.0163
2024-04-06T12:23:14.221Z,40.0041
2024-04-06T12:24:15.686Z,38.9875
2024-04-06T12:25:17.160Z,37.9162
2024-04-06T12:26:18.537Z,40.0838
2024-04-06T12:27:19.864Z,41.6713
2024-04-06T12:28:21.157Z,42.0111